Terminal Aerodrome Forecast
Issued by NWS New Orleans/Baton Rouge, LA

Home | Current Version | Previous Version | Text Only | Print | Product List | Glossary On
Versions: 1 2 3 4 5 6 7 8 9 10 11 12 13 14 15 16 17 18 19 20
000
FTUS44 KLIX 030520
TAFBTR
TAF
KBTR 030520Z 0306/0406 34004KT P6SM BKN035
     FM030700 35005KT P6SM BKN008
     FM031400 01006KT P6SM BKN015
     FM031500 36006KT P6SM BKN040
     FM032300 32006KT P6SM FEW050 SCT250=

USA.gov is the U.S. government's official web portal to all federal, state and local government web resources and services.